sensor_id;sensor_type;location;lat;lon;timestamp;pressure;altitude;pressure_sealevel;temperature;humidity
13695;BME280;6919;52.344;14.518;2023-04-16T00:01:02;100655.66;;;10.39;100.00
13695;BME280;6919;52.344;14.518;2023-04-16T00:03:32;100661.16;;;10.37;100.00
13695;BME280;6919;52.344;14.518;2023-04-16T00:06:01;100658.91;;;10.42;100.00
13695;BME280;6919;52.344;14.518;2023-04-16T00:08:29;100661.88;;;10.39;100.00
13695;BME280;6919;52.344;14.518;2023-04-16T00:10:57;100660.19;;;10.38;100.00
13695;BME280;6919;52.344;14.518;2023-04-16T00:13:25;100657.19;;;10.41;100.00
13695;BME280;6919;52.344;14.518;2023-04-16T00:15:54;100663.03;;;10.37;100.00
13695;BME280;6919;52.344;14.518;2023-04-16T00:18:22;100665.56;;;10.38;100.00
13695;BME280;6919;52.344;14.518;2023-04-16T00:20:52;100664.63;;;10.30;100.00
13695;BME280;6919;52.344;14.518;2023-04-16T00:23:20;100666.06;;;10.24;100.00
13695;BME280;6919;52.344;14.518;2023-04-16T00:25:50;100669.84;;;10.31;100.00
13695;BME280;6919;52.344;14.518;2023-04-16T00:28:19;100652.03;;;10.30;100.00
13695;BME280;6919;52.344;14.518;2023-04-16T00:30:47;100655.81;;;10.37;100.00
13695;BME280;6919;52.344;14.518;2023-04-16T00:33:16;100657.09;;;10.33;100.00
13695;BME280;6919;52.344;14.518;2023-04-16T00:35:45;100663.91;;;10.28;100.00
13695;BME280;6919;52.344;14.518;2023-04-16T00:38:14;100660.38;;;10.27;100.00
13695;BME280;6919;52.344;14.518;2023-04-16T00:40:43;100667.44;;;10.28;100.00
13695;BME280;6919;52.344;14.518;2023-04-16T00:43:19;100671.09;;;10.27;100.00
13695;BME280;6919;52.344;14.518;2023-04-16T00:45:48;100662.38;;;10.25;100.00
13695;BME280;6919;52.344;14.518;2023-04-16T00:48:16;100665.50;;;10.21;100.00
13695;BME280;6919;52.344;14.518;2023-04-16T00:50:44;100663.41;;;10.15;100.00
13695;BME280;6919;52.344;14.518;2023-04-16T00:53:14;100670.00;;;10.20;100.00
13695;BME280;6919;52.344;14.518;2023-04-16T00:55:44;100668.91;;;10.23;100.00
13695;BME280;6919;52.344;14.518;2023-04-16T00:58:12;100668.91;;;10.23;100.00
13695;BME280;6919;52.344;14.518;2023-04-16T01:00:40;100672.09;;;10.26;100.00
13695;BME280;6919;52.344;14.518;2023-04-16T01:03:09;100662.47;;;10.33;100.00
13695;BME280;6919;52.344;14.518;2023-04-16T01:05:38;100664.06;;;10.26;100.00
13695;BME280;6919;52.344;14.518;2023-04-16T01:08:15;100664.78;;;10.28;100.00
13695;BME280;6919;52.344;14.518;2023-04-16T01:10:44;100656.94;;;10.17;100.00
13695;BME280;6919;52.344;14.518;2023-04-16T01:13:12;100663.13;;;10.18;100.00
13695;BME280;6919;52.344;14.518;2023-04-16T01:15:41;100666.09;;;10.15;100.00
13695;BME280;6919;52.344;14.518;2023-04-16T01:18:14;100666.97;;;10.15;100.00
13695;BME280;6919;52.344;14.518;2023-04-16T01:20:44;100675.69;;;10.17;100.00
13695;BME280;6919;52.344;14.518;2023-04-16T01:23:12;100672.88;;;10.19;100.00
13695;BME280;6919;52.344;14.518;2023-04-16T01:25:41;100681.44;;;10.22;100.00
13695;BME280;6919;52.344;14.518;2023-04-16T01:28:09;100683.19;;;10.14;100.00
13695;BME280;6919;52.344;14.518;2023-04-16T01:30:37;100682.19;;;10.15;100.00
13695;BME280;6919;52.344;14.518;2023-04-16T01:33:06;100684.84;;;10.15;100.00
13695;BME280;6919;52.344;14.518;2023-04-16T01:35:34;100680.91;;;10.19;100.00
13695;BME280;6919;52.344;14.518;2023-04-16T01:38:05;100676.22;;;10.21;100.00
13695;BME280;6919;52.344;14.518;2023-04-16T01:40:34;100676.38;;;10.19;100.00
13695;BME280;6919;52.344;14.518;2023-04-16T01:43:02;100682.75;;;10.18;100.00
13695;BME280;6919;52.344;14.518;2023-04-16T01:45:32;100680.44;;;10.23;100.00
13695;BME280;6919;52.344;14.518;2023-04-16T01:48:01;100685.56;;;10.17;100.00
13695;BME280;6919;52.344;14.518;2023-04-16T01:50:30;100674.00;;;10.16;100.00
13695;BME280;6919;52.344;14.518;2023-04-16T01:52:58;100677.91;;;10.22;100.00
13695;BME280;6919;52.344;14.518;2023-04-16T01:55:30;100677.38;;;10.18;100.00
13695;BME280;6919;52.344;14.518;2023-04-16T01:57:58;100667.19;;;10.22;100.00
13695;BME280;6919;52.344;14.518;2023-04-16T02:00:26;100676.22;;;10.21;100.00
13695;BME280;6919;52.344;14.518;2023-04-16T02:02:55;100677.22;;;10.20;100.00
13695;BME280;6919;52.344;14.518;2023-04-16T02:05:23;100677.09;;;10.21;100.00
13695;BME280;6919;52.344;14.518;2023-04-16T02:07:51;100680.34;;;10.15;100.00
13695;BME280;6919;52.344;14.518;2023-04-16T02:10:20;100676.22;;;10.21;100.00
13695;BME280;6919;52.344;14.518;2023-04-16T02:12:49;100680.72;;;10.20;100.00
13695;BME280;6919;52.344;14.518;2023-04-16T02:15:18;100673.69;;;10.19;100.00
13695;BME280;6919;52.344;14.518;2023-04-16T02:17:46;100673.09;;;10.25;100.00
13695;BME280;6919;52.344;14.518;2023-04-16T02:20:17;100682.69;;;10.28;100.00
13695;BME280;6919;52.344;14.518;2023-04-16T02:22:45;100677.88;;;10.31;100.00
13695;BME280;6919;52.344;14.518;2023-04-16T02:25:14;100683.22;;;10.31;100.00
13695;BME280;6919;52.344;14.518;2023-04-16T02:27:42;100685.78;;;10.23;100.00
13695;BME280;6919;52.344;14.518;2023-04-16T02:30:12;100688.59;;;10.31;100.00
13695;BME280;6919;52.344;14.518;2023-04-16T02:32:40;100685.94;;;10.22;100.00
13695;BME280;6919;52.344;14.518;2023-04-16T02:35:10;100694.91;;;10.13;100.00
13695;BME280;6919;52.344;14.518;2023-04-16T02:37:38;100692.91;;;10.15;100.00
13695;BME280;6919;52.344;14.518;2023-04-16T02:40:08;100693.69;;;10.25;100.00
13695;BME280;6919;52.344;14.518;2023-04-16T02:42:37;100696.28;;;10.17;100.00
13695;BME280;6919;52.344;14.518;2023-04-16T02:45:06;100697.53;;;10.22;100.00
13695;BME280;6919;52.344;14.518;2023-04-16T02:47:36;100696.28;;;10.17;100.00
13695;BME280;6919;52.344;14.518;2023-04-16T02:50:06;100695.44;;;10.16;100.00
13695;BME280;6919;52.344;14.518;2023-04-16T02:52:35;100700.63;;;10.18;100.00
13695;BME280;6919;52.344;14.518;2023-04-16T02:55:04;100702.50;;;10.17;100.00
13695;BME280;6919;52.344;14.518;2023-04-16T02:57:32;100702.59;;;10.25;100.00
13695;BME280;6919;52.344;14.518;2023-04-16T03:00:02;100700.91;;;10.24;100.00
13695;BME280;6919;52.344;14.518;2023-04-16T03:02:31;100705.94;;;10.27;100.00
13695;BME280;6919;52.344;14.518;2023-04-16T03:05:01;100703.13;;;10.29;100.00
13695;BME280;6919;52.344;14.518;2023-04-16T03:07:29;100712.00;;;10.29;100.00
13695;BME280;6919;52.344;14.518;2023-04-16T03:09:58;100712.16;;;10.28;100.00
13695;BME280;6919;52.344;14.518;2023-04-16T03:12:26;100709.47;;;10.28;100.00
13695;BME280;6919;52.344;14.518;2023-04-16T03:14:54;100714.31;;;10.24;100.00
13695;BME280;6919;52.344;14.518;2023-04-16T03:17:23;100701.19;;;10.21;100.00
13695;BME280;6919;52.344;14.518;2023-04-16T03:19:51;100705.84;;;10.19;100.00
13695;BME280;6919;52.344;14.518;2023-04-16T03:22:21;100721.34;;;10.25;100.00
13695;BME280;6919;52.344;14.518;2023-04-16T03:24:49;100707.09;;;10.25;100.00
13695;BME280;6919;52.344;14.518;2023-04-16T03:27:18;100713.97;;;10.27;100.00
13695;BME280;6919;52.344;14.518;2023-04-16T03:29:46;100720.06;;;10.29;100.00
13695;BME280;6919;52.344;14.518;2023-04-16T03:32:14;100717.91;;;10.33;100.00
13695;BME280;6919;52.344;14.518;2023-04-16T03:34:43;100715.41;;;10.31;100.00
13695;BME280;6919;52.344;14.518;2023-04-16T03:37:15;100716.84;;;10.26;100.00
13695;BME280;6919;52.344;14.518;2023-04-16T03:39:45;100715.41;;;10.22;100.00
13695;BME280;6919;52.344;14.518;2023-04-16T03:42:13;100719.09;;;10.21;100.00
13695;BME280;6919;52.344;14.518;2023-04-16T03:44:42;100727.00;;;10.22;100.00
13695;BME280;6919;52.344;14.518;2023-04-16T03:47:10;100724.16;;;10.24;100.00
13695;BME280;6919;52.344;14.518;2023-04-16T03:49:38;100731.78;;;10.28;100.00
13695;BME280;6919;52.344;14.518;2023-04-16T03:52:06;100735.41;;;10.27;100.00
13695;BME280;6919;52.344;14.518;2023-04-16T03:54:35;100734.44;;;10.28;100.00
13695;BME280;6919;52.344;14.518;2023-04-16T03:57:05;100742.78;;;10.25;100.00
13695;BME280;6919;52.344;14.518;2023-04-16T03:59:33;100743.28;;;10.38;100.00
13695;BME280;6919;52.344;14.518;2023-04-16T04:02:01;100742.97;;;10.41;100.00
13695;BME280;6919;52.344;14.518;2023-04-16T04:04:30;100752.84;;;10.41;100.00
13695;BME280;6919;52.344;14.518;2023-04-16T04:06:58;100756.06;;;10.44;100.00
13695;BME280;6919;52.344;14.518;2023-04-16T04:09:26;100753.38;;;10.44;100.00
13695;BME280;6919;52.344;14.518;2023-04-16T04:11:55;100760.84;;;10.50;100.00
13695;BME280;6919;52.344;14.518;2023-04-16T04:14:24;100761.66;;;10.78;100.00
13695;BME280;6919;52.344;14.518;2023-04-16T04:16:53;100756.56;;;10.57;100.00
13695;BME280;6919;52.344;14.518;2023-04-16T04:19:21;100760.13;;;10.48;100.00
13695;BME280;6919;52.344;14.518;2023-04-16T04:21:49;100761.44;;;10.44;100.00
13695;BME280;6919;52.344;14.518;2023-04-16T04:24:18;100760.13;;;10.48;100.00
13695;BME280;6919;52.344;14.518;2023-04-16T04:26:46;100770.22;;;10.64;100.00
13695;BME280;6919;52.344;14.518;2023-04-16T04:29:14;100769.75;;;10.68;100.00
13695;BME280;6919;52.344;14.518;2023-04-16T04:31:44;100764.31;;;10.60;100.00
13695;BME280;6919;52.344;14.518;2023-04-16T04:34:12;100773.19;;;10.61;100.00
13695;BME280;6919;52.344;14.518;2023-04-16T04:36:41;100770.78;;;10.67;100.00
13695;BME280;6919;52.344;14.518;2023-04-16T04:39:09;100773.31;;;10.69;100.00
13695;BME280;6919;52.344;14.518;2023-04-16T04:41:37;100774.41;;;10.66;100.00
13695;BME280;6919;52.344;14.518;2023-04-16T04:44:06;100778.97;;;10.66;100.00
13695;BME280;6919;52.344;14.518;2023-04-16T04:46:34;100781.03;;;10.72;100.00
13695;BME280;6919;52.344;14.518;2023-04-16T04:49:03;100777.44;;;10.81;100.00
13695;BME280;6919;52.344;14.518;2023-04-16T04:51:32;100777.75;;;10.78;100.00
13695;BME280;6919;52.344;14.518;2023-04-16T04:54:00;100784.41;;;10.74;100.00
13695;BME280;6919;52.344;14.518;2023-04-16T04:56:29;100774.38;;;10.76;100.00
13695;BME280;6919;52.344;14.518;2023-04-16T04:58:57;100781.44;;;10.94;100.00
13695;BME280;6919;52.344;14.518;2023-04-16T05:01:25;100777.59;;;10.79;100.00
13695;BME280;6919;52.344;14.518;2023-04-16T05:03:53;100780.28;;;10.79;100.00
13695;BME280;6919;52.344;14.518;2023-04-16T05:06:23;100776.00;;;10.86;100.00
13695;BME280;6919;52.344;14.518;2023-04-16T05:08:55;100782.06;;;10.88;100.00
13695;BME280;6919;52.344;14.518;2023-04-16T05:11:24;100790.09;;;10.88;100.00
13695;BME280;6919;52.344;14.518;2023-04-16T05:13:52;100788.97;;;10.91;100.00
13695;BME280;6919;52.344;14.518;2023-04-16T05:16:20;100786.19;;;10.83;100.00
13695;BME280;6919;52.344;14.518;2023-04-16T05:18:48;100794.38;;;10.81;100.00
13695;BME280;6919;52.344;14.518;2023-04-16T05:21:17;100791.16;;;10.78;100.00
13695;BME280;6919;52.344;14.518;2023-04-16T05:23:47;100795.72;;;10.68;100.00
13695;BME280;6919;52.344;14.518;2023-04-16T05:26:15;100804.41;;;10.79;100.00
13695;BME280;6919;52.344;14.518;2023-04-16T05:28:43;100811.78;;;10.77;100.00
13695;BME280;6919;52.344;14.518;2023-04-16T05:31:12;100808.94;;;10.79;100.00
13695;BME280;6919;52.344;14.518;2023-04-16T05:33:40;100804.50;;;10.87;100.00
13695;BME280;6919;52.344;14.518;2023-04-16T05:36:08;100817.53;;;10.82;100.00
13695;BME280;6919;52.344;14.518;2023-04-16T05:38:36;100823.59;;;10.84;100.00
13695;BME280;6919;52.344;14.518;2023-04-16T05:41:06;100815.78;;;10.91;100.00
13695;BME280;6919;52.344;14.518;2023-04-16T05:43:34;100819.75;;;10.87;100.00
13695;BME280;6919;52.344;14.518;2023-04-16T05:46:03;100817.72;;;10.98;100.00
13695;BME280;6919;52.344;14.518;2023-04-16T05:48:31;100818.47;;;10.91;100.00
13695;BME280;6919;52.344;14.518;2023-04-16T05:51:00;100817.72;;;10.98;100.00
13695;BME280;6919;52.344;14.518;2023-04-16T05:53:29;100817.16;;;10.95;100.00
13695;BME280;6919;52.344;14.518;2023-04-16T05:55:57;100822.38;;;10.96;100.00
13695;BME280;6919;52.344;14.518;2023-04-16T05:58:27;100824.84;;;10.90;100.00
13695;BME280;6919;52.344;14.518;2023-04-16T06:00:55;100828.50;;;10.89;100.00
13695;BME280;6919;52.344;14.518;2023-04-16T06:03:24;100831.38;;;11.05;100.00
13695;BME280;6919;52.344;14.518;2023-04-16T06:05:52;100834.66;;;10.99;100.00
13695;BME280;6919;52.344;14.518;2023-04-16T06:08:21;100832.72;;;10.91;100.00
13695;BME280;6919;52.344;14.518;2023-04-16T06:10:49;100830.34;;;11.06;100.00
13695;BME280;6919;52.344;14.518;2023-04-16T06:13:17;100835.88;;;10.87;100.00
13695;BME280;6919;52.344;14.518;2023-04-16T06:15:47;100831.03;;;10.90;100.00
13695;BME280;6919;52.344;14.518;2023-04-16T06:18:16;100841.75;;;10.90;100.00
13695;BME280;6919;52.344;14.518;2023-04-16T06:20:44;100841.53;;;11.01;100.00
13695;BME280;6919;52.344;14.518;2023-04-16T06:23:12;100836.88;;;11.03;100.00
13695;BME280;6919;52.344;14.518;2023-04-16T06:25:41;100830.50;;;11.04;100.00
13695;BME280;6919;52.344;14.518;2023-04-16T06:28:09;100838.56;;;11.04;100.00
13695;BME280;6919;52.344;14.518;2023-04-16T06:30:38;100837.91;;;10.93;100.00
13695;BME280;6919;52.344;14.518;2023-04-16T06:33:11;100845.31;;;11.08;100.00
13695;BME280;6919;52.344;14.518;2023-04-16T06:35:40;100845.72;;;11.13;100.00
13695;BME280;6919;52.344;14.518;2023-04-16T06:38:08;100845.19;;;11.27;100.00
13695;BME280;6919;52.344;14.518;2023-04-16T06:40:37;100846.88;;;11.28;100.00
13695;BME280;6919;52.344;14.518;2023-04-16T06:43:05;100842.44;;;11.37;100.00
13695;BME280;6919;52.344;14.518;2023-04-16T06:45:34;100838.66;;;11.30;100.00
13695;BME280;6919;52.344;14.518;2023-04-16T06:48:02;100847.69;;;11.11;100.00
13695;BME280;6919;52.344;14.518;2023-04-16T06:50:32;100845.31;;;11.08;100.00
13695;BME280;6919;52.344;14.518;2023-04-16T06:53:01;100856.69;;;11.20;100.00
13695;BME280;6919;52.344;14.518;2023-04-16T06:55:29;100851.38;;;11.10;100.00
13695;BME280;6919;52.344;14.518;2023-04-16T06:57:58;100850.63;;;11.18;100.00
13695;BME280;6919;52.344;14.518;2023-04-16T07:00:26;100857.84;;;11.17;100.00
13695;BME280;6919;52.344;14.518;2023-04-16T07:02:54;100858.94;;;10.97;100.00
13695;BME280;6919;52.344;14.518;2023-04-16T07:05:24;100865.16;;;10.98;100.00
13695;BME280;6919;52.344;14.518;2023-04-16T07:07:54;100867.56;;;11.01;100.00
13695;BME280;6919;52.344;14.518;2023-04-16T07:10:23;100870.16;;;11.10;100.00
13695;BME280;6919;52.344;14.518;2023-04-16T07:12:52;100870.16;;;11.10;100.00
13695;BME280;6919;52.344;14.518;2023-04-16T07:15:20;100870.63;;;11.06;100.00
13695;BME280;6919;52.344;14.518;2023-04-16T07:17:48;100874.94;;;11.16;100.00
13695;BME280;6919;52.344;14.518;2023-04-16T07:20:17;100871.56;;;11.14;100.00
13695;BME280;6919;52.344;14.518;2023-04-16T07:22:45;100873.53;;;11.12;100.00
13695;BME280;6919;52.344;14.518;2023-04-16T07:25:14;100876.78;;;11.16;100.00
13695;BME280;6919;52.344;14.518;2023-04-16T07:27:43;100866.78;;;11.08;100.00
13695;BME280;6919;52.344;14.518;2023-04-16T07:30:11;100877.09;;;11.30;100.00
13695;BME280;6919;52.344;14.518;2023-04-16T07:32:39;100876.88;;;11.41;100.00
13695;BME280;6919;52.344;14.518;2023-04-16T07:35:08;100875.16;;;11.40;100.00
13695;BME280;6919;52.344;14.518;2023-04-16T07:37:37;100874.25;;;11.49;100.00
13695;BME280;6919;52.344;14.518;2023-04-16T07:40:07;100873.75;;;11.63;100.00
13695;BME280;6919;52.344;14.518;2023-04-16T07:42:37;100882.81;;;11.62;100.00
13695;BME280;6919;52.344;14.518;2023-04-16T07:45:07;100878.97;;;11.65;100.00
13695;BME280;6919;52.344;14.518;2023-04-16T07:47:35;100876.94;;;11.49;100.00
13695;BME280;6919;52.344;14.518;2023-04-16T07:50:05;100879.59;;;11.76;100.00
13695;BME280;6919;52.344;14.518;2023-04-16T07:52:34;100881.31;;;11.85;100.00
13695;BME280;6919;52.344;14.518;2023-04-16T07:55:04;100876.97;;;11.84;100.00
13695;BME280;6919;52.344;14.518;2023-04-16T07:57:32;100871.84;;;11.99;100.00
13695;BME280;6919;52.344;14.518;2023-04-16T08:00:03;100873.25;;;12.03;100.00
13695;BME280;6919;52.344;14.518;2023-04-16T08:02:32;100872.44;;;11.85;100.00
13695;BME280;6919;52.344;14.518;2023-04-16T08:05:01;100872.91;;;12.06;100.00
13695;BME280;6919;52.344;14.518;2023-04-16T08:07:29;100866.91;;;12.12;100.00
13695;BME280;6919;52.344;14.518;2023-04-16T08:10:00;100871.69;;;12.18;100.00
13695;BME280;6919;52.344;14.518;2023-04-16T08:12:29;100878.56;;;12.21;100.00
13695;BME280;6919;52.344;14.518;2023-04-16T08:14:57;100877.09;;;12.26;100.00
13695;BME280;6919;52.344;14.518;2023-04-16T08:17:27;100882.47;;;12.26;100.00
13695;BME280;6919;52.344;14.518;2023-04-16T08:19:56;100878.69;;;12.37;100.00
13695;BME280;6919;52.344;14.518;2023-04-16T08:22:24;100878.31;;;12.32;100.00
13695;BME280;6919;52.344;14.518;2023-04-16T08:24:53;100881.47;;;12.27;100.00
13695;BME280;6919;52.344;14.518;2023-04-16T08:27:21;100884.53;;;12.32;100.00
13695;BME280;6919;52.344;14.518;2023-04-16T08:29:49;100883.31;;;12.27;100.00
13695;BME280;6919;52.344;14.518;2023-04-16T08:32:17;100887.38;;;12.31;100.00
13695;BME280;6919;52.344;14.518;2023-04-16T08:34:48;100890.13;;;12.39;100.00
13695;BME280;6919;52.344;14.518;2023-04-16T08:37:16;100899.53;;;12.43;100.00
13695;BME280;6919;52.344;14.518;2023-04-16T08:39:44;100901.88;;;12.38;100.00
13695;BME280;6919;52.344;14.518;2023-04-16T08:42:22;100901.88;;;12.38;100.00
13695;BME280;6919;52.344;14.518;2023-04-16T08:45:02;100902.63;;;12.48;100.00
13695;BME280;6919;52.344;14.518;2023-04-16T08:47:34;100906.19;;;12.31;100.00
13695;BME280;6919;52.344;14.518;2023-04-16T08:50:08;100912.84;;;12.19;100.00
13695;BME280;6919;52.344;14.518;2023-04-16T08:52:43;100920.00;;;12.10;100.00
13695;BME280;6919;52.344;14.518;2023-04-16T08:55:13;100912.41;;;12.06;100.00
13695;BME280;6919;52.344;14.518;2023-04-16T08:57:47;100918.78;;;12.05;100.00
13695;BME280;6919;52.344;14.518;2023-04-16T09:00:16;100913.16;;;12.16;100.00
13695;BME280;6919;52.344;14.518;2023-04-16T09:02:45;100918.13;;;12.28;100.00
13695;BME280;6919;52.344;14.518;2023-04-16T09:05:16;100919.59;;;12.48;100.00
13695;BME280;6919;52.344;14.518;2023-04-16T09:07:47;100918.63;;;12.32;100.00
13695;BME280;6919;52.344;14.518;2023-04-16T09:10:16;100930.44;;;12.39;100.00
13695;BME280;6919;52.344;14.518;2023-04-16T09:12:45;100928.81;;;12.46;100.00
13695;BME280;6919;52.344;14.518;2023-04-16T09:15:13;100923.91;;;12.67;100.00
13695;BME280;6919;52.344;14.518;2023-04-16T09:17:42;100929.47;;;12.73;100.00
13695;BME280;6919;52.344;14.518;2023-04-16T09:20:11;100933.09;;;12.56;100.00
13695;BME280;6919;52.344;14.518;2023-04-16T09:22:42;100935.09;;;12.80;100.00
13695;BME280;6919;52.344;14.518;2023-04-16T09:25:12;100932.88;;;12.50;100.00
13695;BME280;6919;52.344;14.518;2023-04-16T09:27:41;100932.13;;;12.40;100.00
13695;BME280;6919;52.344;14.518;2023-04-16T09:30:21;100937.94;;;12.53;100.00
13695;BME280;6919;52.344;14.518;2023-04-16T09:32:51;100941.09;;;12.74;100.00
13695;BME280;6919;52.344;14.518;2023-04-16T09:35:20;100931.63;;;12.95;100.00
13695;BME280;6919;52.344;14.518;2023-04-16T09:37:56;100935.25;;;13.12;100.00
13695;BME280;6919;52.344;14.518;2023-04-16T09:40:26;100931.25;;;13.16;100.00
13695;BME280;6919;52.344;14.518;2023-04-16T09:42:57;100933.06;;;13.15;100.00
13695;BME280;6919;52.344;14.518;2023-04-16T09:45:30;100941.56;;;13.28;100.00
13695;BME280;6919;52.344;14.518;2023-04-16T09:48:02;100937.94;;;13.04;100.00
13695;BME280;6919;52.344;14.518;2023-04-16T09:50:32;100941.94;;;13.00;100.00
13695;BME280;6919;52.344;14.518;2023-04-16T09:53:02;100940.84;;;12.93;100.00
13695;BME280;6919;52.344;14.518;2023-04-16T09:55:32;100942.41;;;12.95;100.00
13695;BME280;6919;52.344;14.518;2023-04-16T09:58:01;100947.06;;;12.85;100.00
13695;BME280;6919;52.344;14.518;2023-04-16T10:00:29;100943.38;;;12.94;100.00
13695;BME280;6919;52.344;14.518;2023-04-16T10:03:07;100948.06;;;12.84;100.00
13695;BME280;6919;52.344;14.518;2023-04-16T10:05:35;100952.75;;;12.57;100.00
13695;BME280;6919;52.344;14.518;2023-04-16T10:08:11;100952.91;;;12.55;100.00
13695;BME280;6919;52.344;14.518;2023-04-16T10:10:40;100958.56;;;12.44;100.00
13695;BME280;6919;52.344;14.518;2023-04-16T10:13:09;100960.25;;;12.71;100.00
13695;BME280;6919;52.344;14.518;2023-04-16T10:15:39;100961.63;;;12.75;100.00
13695;BME280;6919;52.344;14.518;2023-04-16T10:18:09;100954.44;;;13.09;100.00
13695;BME280;6919;52.344;14.518;2023-04-16T10:20:38;100959.13;;;13.07;100.00
13695;BME280;6919;52.344;14.518;2023-04-16T10:23:08;100961.81;;;13.07;100.00
13695;BME280;6919;52.344;14.518;2023-04-16T10:25:37;100952.31;;;13.20;100.00
13695;BME280;6919;52.344;14.518;2023-04-16T10:28:07;100949.06;;;13.17;100.00
13695;BME280;6919;52.344;14.518;2023-04-16T10:30:37;100951.09;;;12.89;100.00
13695;BME280;6919;52.344;14.518;2023-04-16T10:33:09;100953.66;;;12.91;100.00
13695;BME280;6919;52.344;14.518;2023-04-16T10:35:38;100959.47;;;13.04;100.00
13695;BME280;6919;52.344;14.518;2023-04-16T10:38:26;100959.97;;;13.07;100.00
13695;BME280;6919;52.344;14.518;2023-04-16T10:40:58;100964.56;;;13.15;100.00
13695;BME280;6919;52.344;14.518;2023-04-16T10:43:29;100961.25;;;13.29;100.00
13695;BME280;6919;52.344;14.518;2023-04-16T10:46:17;100952.00;;;13.31;100.00
13695;BME280;6919;52.344;14.518;2023-04-16T10:48:46;100956.19;;;13.26;100.00
13695;BME280;6919;52.344;14.518;2023-04-16T10:51:25;100959.53;;;13.20;100.00
13695;BME280;6919;52.344;14.518;2023-04-16T10:53:57;100965.44;;;13.23;100.00
13695;BME280;6919;52.344;14.518;2023-04-16T10:56:33;100958.16;;;13.16;100.00
13695;BME280;6919;52.344;14.518;2023-04-16T10:59:04;100959.38;;;13.29;100.00
13695;BME280;6919;52.344;14.518;2023-04-16T11:01:35;100968.47;;;13.28;100.00
13695;BME280;6919;52.344;14.518;2023-04-16T11:04:31;100960.88;;;13.24;100.00
13695;BME280;6919;52.344;14.518;2023-04-16T11:07:14;100974.13;;;13.09;100.00
13695;BME280;6919;52.344;14.518;2023-04-16T11:09:55;100980.25;;;12.94;100.00
13695;BME280;6919;52.344;14.518;2023-04-16T11:12:32;100980.19;;;13.11;100.00
13695;BME280;6919;52.344;14.518;2023-04-16T11:15:03;100974.97;;;13.10;100.00
13695;BME280;6919;52.344;14.518;2023-04-16T11:17:36;100980.38;;;13.51;100.00
13695;BME280;6919;52.344;14.518;2023-04-16T11:20:06;100977.63;;;13.43;100.00
13695;BME280;6919;52.344;14.518;2023-04-16T11:22:46;100975.03;;;13.26;100.00
13695;BME280;6919;52.344;14.518;2023-04-16T11:25:20;100971.59;;;13.08;100.00
13695;BME280;6919;52.344;14.518;2023-04-16T11:27:50;100969.41;;;12.86;100.00
13695;BME280;6919;52.344;14.518;2023-04-16T11:30:28;100977.59;;;12.76;100.00
13695;BME280;6919;52.344;14.518;2023-04-16T11:32:56;100980.59;;;12.73;100.00
13695;BME280;6919;52.344;14.518;2023-04-16T11:35:25;100984.16;;;12.74;100.00
13695;BME280;6919;52.344;14.518;2023-04-16T11:37:56;100989.53;;;12.74;100.00
13695;BME280;6919;52.344;14.518;2023-04-16T11:40:29;100987.75;;;12.82;100.00
13695;BME280;6919;52.344;14.518;2023-04-16T11:43:01;100993.69;;;12.68;100.00
13695;BME280;6919;52.344;14.518;2023-04-16T11:45:30;100992.03;;;12.67;100.00
13695;BME280;6919;52.344;14.518;2023-04-16T11:47:58;100996.31;;;12.86;100.00
13695;BME280;6919;52.344;14.518;2023-04-16T11:50:27;100994.66;;;12.85;100.00
13695;BME280;6919;52.344;14.518;2023-04-16T11:53:03;100989.94;;;13.12;100.00
13695;BME280;6919;52.344;14.518;2023-04-16T11:55:42;100994.28;;;13.39;100.00
13695;BME280;6919;52.344;14.518;2023-04-16T11:58:11;100980.69;;;13.48;100.00
13695;BME280;6919;52.344;14.518;2023-04-16T12:00:42;100985.94;;;13.58;100.00
13695;BME280;6919;52.344;14.518;2023-04-16T12:03:11;100989.97;;;13.62;100.00
13695;BME280;6919;52.344;14.518;2023-04-16T12:05:39;100992.91;;;13.35;100.00
13695;BME280;6919;52.344;14.518;2023-04-16T12:08:10;100991.50;;;13.15;100.00
13695;BME280;6919;52.344;14.518;2023-04-16T12:10:54;100995.38;;;13.20;100.00
13695;BME280;6919;52.344;14.518;2023-04-16T12:13:22;100987.94;;;13.56;100.00
13695;BME280;6919;52.344;14.518;2023-04-16T12:15:52;100998.13;;;13.78;100.00
13695;BME280;6919;52.344;14.518;2023-04-16T12:18:23;100996.47;;;14.09;100.00
13695;BME280;6919;52.344;14.518;2023-04-16T12:20:52;100984.06;;;14.24;100.00
13695;BME280;6919;52.344;14.518;2023-04-16T12:23:27;100987.72;;;14.15;100.00
13695;BME280;6919;52.344;14.518;2023-04-16T12:25:57;100986.34;;;14.19;100.00
13695;BME280;6919;52.344;14.518;2023-04-16T12:28:31;100988.56;;;14.39;100.00
13695;BME280;6919;52.344;14.518;2023-04-16T12:31:00;100986.75;;;14.24;100.00
13695;BME280;6919;52.344;14.518;2023-04-16T12:33:29;100995.84;;;14.39;100.00
13695;BME280;6919;52.344;14.518;2023-04-16T12:35:57;100992.47;;;14.29;100.00
13695;BME280;6919;52.344;14.518;2023-04-16T12:38:28;100993.50;;;14.28;100.00
13695;BME280;6919;52.344;14.518;2023-04-16T12:40:58;100994.84;;;14.32;100.00
13695;BME280;6919;52.344;14.518;2023-04-16T12:43:28;100986.03;;;14.14;100.00
13695;BME280;6919;52.344;14.518;2023-04-16T12:45:56;100991.59;;;14.04;100.00
13695;BME280;6919;52.344;14.518;2023-04-16T12:48:25;100995.28;;;14.03;100.00
13695;BME280;6919;52.344;14.518;2023-04-16T12:50:53;100990.94;;;13.45;100.00
13695;BME280;6919;52.344;14.518;2023-04-16T12:53:22;100989.97;;;13.62;100.00